Time;durP1;ratioP1;P1;durP2;ratioP2;P2;SDS_P1;SDS_P2;PMS_P1;PMS_P2;Temp;Humidity;BMP_temperature;BMP_pressure;BME280_temperature;BME280_humidity;BME280_pressure;Samples;Min_cycle;Max_cycle;Signal;HPM_P1;HPM_P2
2022/01/09 00:00:05;;;;;;;0.40;0.40;;;2.80;99.90;;;;;;4881455;29;20855;-79
2022/01/09 00:02:31;;;;;;;0.30;0.30;;;2.80;99.90;;;;;;4881682;29;20450;-79
2022/01/09 00:04:58;;;;;;;0.40;0.40;;;2.80;99.90;;;;;;4881073;29;20517;-79
2022/01/09 00:07:25;;;;;;;0.30;0.20;;;2.70;99.90;;;;;;4881796;29;20470;-78
2022/01/09 00:09:52;;;;;;;0.30;0.20;;;2.80;99.90;;;;;;4881726;29;20465;-79
2022/01/09 00:12:20;;;;;;;0.30;0.20;;;2.80;99.90;;;;;;4881886;29;20460;-78
2022/01/09 00:14:46;;;;;;;0.30;0.20;;;2.70;99.90;;;;;;4880865;29;20954;-79
2022/01/09 00:17:13;;;;;;;0.30;0.20;;;2.70;99.90;;;;;;4881818;29;20461;-79
2022/01/09 00:19:40;;;;;;;0.30;0.30;;;2.70;99.90;;;;;;4881383;29;20485;-78
2022/01/09 00:22:07;;;;;;;0.30;0.30;;;2.70;99.90;;;;;;4881338;29;20492;-78
2022/01/09 00:24:34;;;;;;;0.30;0.30;;;2.70;99.90;;;;;;4881562;29;20477;-78
2022/01/09 00:27:00;;;;;;;0.30;0.30;;;2.60;99.90;;;;;;4881597;29;20466;-78
2022/01/09 00:29:28;;;;;;;0.30;0.20;;;2.60;99.90;;;;;;4881325;29;20473;-78
2022/01/09 00:31:55;;;;;;;0.30;0.20;;;2.60;99.90;;;;;;4881653;29;20465;-78
2022/01/09 00:34:22;;;;;;;0.30;0.30;;;2.60;99.90;;;;;;4881466;29;20456;-78
2022/01/09 00:36:49;;;;;;;0.30;0.30;;;2.60;99.90;;;;;;4881395;29;20825;-79
2022/01/09 00:39:16;;;;;;;0.30;0.30;;;2.60;99.90;;;;;;4881298;29;20472;-79
2022/01/09 00:41:42;;;;;;;0.30;0.23;;;2.60;99.90;;;;;;4881279;29;20489;-78
2022/01/09 00:44:09;;;;;;;0.30;0.30;;;2.60;99.90;;;;;;4881011;29;20458;-77
2022/01/09 00:46:37;;;;;;;0.30;0.20;;;2.60;99.90;;;;;;4881281;29;20439;-79
2022/01/09 00:49:05;;;;;;;0.30;0.20;;;2.60;99.90;;;;;;4900221;29;20453;-79
2022/01/09 00:51:32;;;;;;;0.30;0.30;;;2.60;99.90;;;;;;4899880;29;20464;-79
2022/01/09 00:53:58;;;;;;;0.30;0.30;;;2.60;99.90;;;;;;4899630;29;20461;-79
2022/01/09 00:56:25;;;;;;;0.30;0.30;;;2.60;99.90;;;;;;4899523;29;20976;-79
2022/01/09 00:58:52;;;;;;;0.30;0.30;;;2.60;99.90;;;;;;4899751;29;20460;-79
2022/01/09 01:01:18;;;;;;;0.30;0.30;;;2.60;99.90;;;;;;4899673;29;20488;-79
2022/01/09 01:03:47;;;;;;;0.30;0.20;;;2.60;99.90;;;;;;4899665;29;20476;-78
2022/01/09 01:06:14;;;;;;;0.30;0.20;;;2.70;99.90;;;;;;4899682;29;20472;-79
2022/01/09 01:08:40;;;;;;;0.30;0.30;;;2.70;99.90;;;;;;4899594;29;20452;-79
2022/01/09 01:11:09;;;;;;;0.30;0.20;;;2.70;99.90;;;;;;4899710;29;20457;-79
2022/01/09 01:13:36;;;;;;;0.30;0.30;;;2.70;99.90;;;;;;4899116;29;21072;-79
2022/01/09 01:16:03;;;;;;;0.30;0.27;;;2.70;99.90;;;;;;4899352;29;20983;-80
2022/01/09 01:18:30;;;;;;;0.30;0.20;;;2.70;99.90;;;;;;4899511;29;20460;-80
2022/01/09 01:20:58;;;;;;;0.30;0.30;;;2.60;99.90;;;;;;4900182;29;20507;-80
2022/01/09 01:23:24;;;;;;;0.40;0.40;;;2.70;99.90;;;;;;4899048;29;20475;-80
2022/01/09 01:25:52;;;;;;;0.30;0.30;;;2.70;99.90;;;;;;4898281;29;20827;-81
2022/01/09 01:28:19;;;;;;;0.30;0.20;;;2.70;99.90;;;;;;4899311;29;20457;-80
2022/01/09 01:30:46;;;;;;;0.30;0.30;;;2.80;99.90;;;;;;4899293;29;20457;-80
2022/01/09 01:33:13;;;;;;;0.30;0.30;;;2.80;99.90;;;;;;4899127;29;20476;-80
2022/01/09 01:35:39;;;;;;;0.30;0.30;;;2.80;99.90;;;;;;4899133;29;20457;-80
2022/01/09 01:38:07;;;;;;;0.30;0.20;;;2.80;99.90;;;;;;4899017;29;20453;-81
2022/01/09 01:40:34;;;;;;;0.30;0.27;;;2.70;99.90;;;;;;4899077;29;20496;-81
2022/01/09 01:43:01;;;;;;;0.30;0.20;;;2.70;99.90;;;;;;4898699;29;20961;-81
2022/01/09 01:45:28;;;;;;;0.30;0.20;;;2.70;99.90;;;;;;4899031;29;20468;-81
2022/01/09 01:47:54;;;;;;;0.30;0.30;;;2.70;99.90;;;;;;4898710;29;20448;-81
2022/01/09 01:50:21;;;;;;;0.30;0.30;;;2.70;99.90;;;;;;4899129;29;20456;-80
2022/01/09 01:52:51;;;;;;;2.30;2.20;;;2.70;99.90;;;;;;4899008;29;20484;-81
2022/01/09 01:55:20;;;;;;;0.30;0.20;;;2.70;99.90;;;;;;4898820;29;20448;-81
2022/01/09 01:57:46;;;;;;;0.30;0.30;;;2.80;99.90;;;;;;4898988;29;20449;-80
2022/01/09 02:00:17;;;;;;;0.30;0.30;;;2.70;99.90;;;;;;4898662;29;20489;-81
2022/01/09 02:02:44;;;;;;;0.30;0.20;;;2.70;99.90;;;;;;4898675;29;20488;-80
2022/01/09 02:05:12;;;;;;;0.30;0.30;;;2.80;99.90;;;;;;4898643;29;20433;-81
2022/01/09 02:07:39;;;;;;;0.30;0.20;;;2.80;99.90;;;;;;4898612;29;20480;-80
2022/01/09 02:10:08;;;;;;;0.30;0.30;;;2.80;99.90;;;;;;4898677;29;20488;-81
2022/01/09 02:12:37;;;;;;;0.30;0.20;;;2.80;99.90;;;;;;4898698;29;20536;-81
2022/01/09 02:15:44;;;;;;;0.30;0.20;;;2.80;99.90;;;;;;4898553;29;20449;-81
2022/01/09 02:18:12;;;;;;;0.30;0.20;;;2.90;99.90;;;;;;4884560;29;20472;-80
2022/01/09 02:20:41;;;;;;;0.30;0.30;;;2.90;99.90;;;;;;4898137;29;20508;-81
2022/01/09 02:23:10;;;;;;;0.30;0.30;;;2.90;99.90;;;;;;4898305;29;20481;-82
2022/01/09 02:25:38;;;;;;;0.30;0.30;;;2.90;99.90;;;;;;4898096;29;20999;-82
2022/01/09 02:28:07;;;;;;;0.30;0.30;;;2.90;99.90;;;;;;4898047;29;20949;-81
2022/01/09 02:30:34;;;;;;;0.30;0.20;;;2.80;99.90;;;;;;4898337;29;20508;-81
2022/01/09 02:33:02;;;;;;;0.30;0.20;;;2.80;99.90;;;;;;4898212;29;20480;-81
2022/01/09 02:35:29;;;;;;;0.30;0.20;;;2.70;99.90;;;;;;4897973;29;20460;-82
2022/01/09 02:37:57;;;;;;;0.30;0.20;;;2.70;99.90;;;;;;4897662;29;20456;-82
2022/01/09 02:40:24;;;;;;;0.30;0.20;;;2.70;99.90;;;;;;4897944;29;20480;-81
2022/01/09 02:42:52;;;;;;;0.30;0.20;;;2.70;99.90;;;;;;4897911;29;20461;-80
2022/01/09 02:45:21;;;;;;;0.50;0.50;;;2.70;99.90;;;;;;4898180;29;20460;-80
2022/01/09 02:47:49;;;;;;;0.30;0.20;;;2.70;99.90;;;;;;4898157;29;20459;-80
2022/01/09 02:50:29;;;;;;;0.30;0.30;;;2.70;99.90;;;;;;4898100;29;20464;-80
2022/01/09 02:53:00;;;;;;;0.30;0.20;;;2.70;99.90;;;;;;4898124;29;20479;-80
2022/01/09 02:55:28;;;;;;;0.30;0.20;;;2.60;99.90;;;;;;4898382;29;20449;-80
2022/01/09 02:57:57;;;;;;;0.30;0.20;;;2.70;99.90;;;;;;4898074;29;20457;-80
2022/01/09 03:00:26;;;;;;;0.30;0.20;;;2.70;99.90;;;;;;4897979;29;20452;-80
2022/01/09 03:02:53;;;;;;;0.30;0.30;;;2.80;99.90;;;;;;4897967;29;20499;-80
2022/01/09 03:05:20;;;;;;;0.30;0.20;;;2.80;99.90;;;;;;4898001;29;20453;-80
2022/01/09 03:07:47;;;;;;;0.30;0.30;;;2.90;99.90;;;;;;4898029;29;20457;-80
2022/01/09 03:10:17;;;;;;;0.30;0.20;;;2.90;99.90;;;;;;4898026;29;20456;-80
2022/01/09 03:12:44;;;;;;;0.30;0.30;;;3.00;99.90;;;;;;4898454;29;20915;-80
2022/01/09 03:15:12;;;;;;;0.30;0.30;;;3.00;99.90;;;;;;4897697;29;20434;-80
2022/01/09 03:17:40;;;;;;;0.30;0.30;;;3.00;99.90;;;;;;4897944;29;20823;-80
2022/01/09 03:20:09;;;;;;;0.30;0.30;;;3.10;99.90;;;;;;4897467;29;20456;-81
2022/01/09 03:22:35;;;;;;;0.30;0.30;;;3.00;99.90;;;;;;4897792;29;20956;-80
2022/01/09 03:25:02;;;;;;;0.30;0.30;;;3.10;99.90;;;;;;4897624;29;20448;-81
2022/01/09 03:27:30;;;;;;;0.30;0.30;;;3.10;99.90;;;;;;4897879;29;20448;-81
2022/01/09 03:29:57;;;;;;;0.30;0.20;;;3.10;99.90;;;;;;4897537;29;20987;-81
2022/01/09 03:32:24;;;;;;;0.30;0.30;;;3.10;99.90;;;;;;4897709;29;20453;-80
2022/01/09 03:34:50;;;;;;;0.30;0.20;;;3.10;99.90;;;;;;4897555;29;20452;-81
2022/01/09 03:37:17;;;;;;;0.30;0.30;;;3.10;99.90;;;;;;4897491;29;20445;-81
2022/01/09 03:39:44;;;;;;;0.30;0.30;;;3.00;99.90;;;;;;4897526;29;20441;-81
2022/01/09 03:42:11;;;;;;;0.30;0.20;;;2.90;99.90;;;;;;4897607;29;20492;-81
2022/01/09 03:44:39;;;;;;;0.30;0.30;;;2.90;99.90;;;;;;4897636;29;20476;-80
2022/01/09 03:47:06;;;;;;;0.30;0.20;;;2.90;99.90;;;;;;4897726;29;20453;-81
2022/01/09 03:49:32;;;;;;;0.30;0.30;;;2.90;99.90;;;;;;4899965;29;20457;-80
2022/01/09 03:52:00;;;;;;;0.30;0.20;;;2.90;99.90;;;;;;4900974;29;20475;-80
2022/01/09 03:54:27;;;;;;;0.30;0.27;;;2.90;99.90;;;;;;4900906;29;20488;-81
2022/01/09 03:56:54;;;;;;;0.30;0.20;;;2.90;99.90;;;;;;4900936;29;20463;-81
2022/01/09 03:59:21;;;;;;;0.30;0.20;;;2.90;99.90;;;;;;4900833;29;20463;-81
2022/01/09 04:01:49;;;;;;;0.30;0.30;;;2.90;99.90;;;;;;4900424;29;21017;-81
2022/01/09 04:04:16;;;;;;;0.30;0.20;;;2.90;99.90;;;;;;4900782;29;20456;-81
2022/01/09 04:06:46;;;;;;;0.30;0.30;;;2.90;99.90;;;;;;4900733;29;20456;-81
2022/01/09 04:09:19;;;;;;;0.30;0.30;;;3.00;99.90;;;;;;4900463;29;20445;-81
2022/01/09 04:11:46;;;;;;;0.30;0.30;;;3.00;99.90;;;;;;4900775;29;20434;-81
2022/01/09 04:14:14;;;;;;;0.30;0.20;;;3.00;99.90;;;;;;4900500;29;20471;-80
2022/01/09 04:16:41;;;;;;;0.30;0.30;;;3.10;99.90;;;;;;4900577;29;20945;-80
2022/01/09 04:19:12;;;;;;;0.30;0.30;;;3.10;99.90;;;;;;4900576;29;20461;-80
2022/01/09 04:21:40;;;;;;;0.30;0.30;;;3.10;99.90;;;;;;4900393;29;20540;-81
2022/01/09 04:24:07;;;;;;;0.30;0.20;;;3.10;99.90;;;;;;4900926;29;20469;-81
2022/01/09 04:26:34;;;;;;;0.30;0.30;;;3.20;99.90;;;;;;4900385;29;20460;-81
2022/01/09 04:29:00;;;;;;;0.30;0.30;;;3.20;99.90;;;;;;4900074;29;20961;-81
2022/01/09 04:31:27;;;;;;;0.30;0.20;;;3.20;99.90;;;;;;4900305;29;20460;-81
2022/01/09 04:33:54;;;;;;;0.30;0.20;;;3.30;99.90;;;;;;4900298;29;20461;-81
2022/01/09 04:36:22;;;;;;;0.30;0.20;;;3.30;99.90;;;;;;4900314;29;20492;-81
2022/01/09 04:38:50;;;;;;;0.30;0.30;;;3.30;99.90;;;;;;4900180;29;20950;-80
2022/01/09 04:41:17;;;;;;;0.30;0.30;;;3.20;99.90;;;;;;4900094;29;20585;-80
2022/01/09 04:43:45;;;;;;;0.30;0.30;;;3.20;99.90;;;;;;4900014;29;20472;-79
2022/01/09 04:46:17;;;;;;;0.30;0.20;;;3.30;99.90;;;;;;4900289;29;20544;-80
2022/01/09 04:48:45;;;;;;;0.30;0.20;;;3.20;99.90;;;;;;4899784;29;20998;-80
2022/01/09 04:51:14;;;;;;;0.30;0.30;;;3.10;99.90;;;;;;4899985;29;20877;-79
2022/01/09 04:53:42;;;;;;;0.30;0.30;;;3.00;99.90;;;;;;4899921;29;20613;-79
2022/01/09 04:56:08;;;;;;;0.30;0.30;;;3.00;99.90;;;;;;4900075;29;20456;-79
2022/01/09 04:58:35;;;;;;;0.30;0.20;;;2.90;99.90;;;;;;4899863;29;20461;-79
2022/01/09 05:01:02;;;;;;;0.30;0.30;;;2.70;99.90;;;;;;4899652;29;20836;-79
2022/01/09 05:03:29;;;;;;;0.30;0.30;;;2.70;99.90;;;;;;4899445;29;20996;-79
2022/01/09 05:05:55;;;;;;;0.30;0.30;;;2.60;99.90;;;;;;4899644;29;20456;-79
2022/01/09 05:08:22;;;;;;;0.30;0.30;;;2.60;99.90;;;;;;4899643;29;20468;-80
2022/01/09 05:10:50;;;;;;;0.30;0.30;;;2.60;99.90;;;;;;4900224;29;20464;-80
2022/01/09 05:13:17;;;;;;;0.30;0.30;;;2.50;99.90;;;;;;4899471;29;20477;-80
2022/01/09 05:15:44;;;;;;;0.30;0.30;;;2.50;99.90;;;;;;4899396;29;20456;-80
2022/01/09 05:18:14;;;;;;;0.30;0.20;;;2.50;99.90;;;;;;4899861;29;20463;-81
2022/01/09 05:20:41;;;;;;;0.30;0.20;;;2.50;99.90;;;;;;4899690;29;20540;-80
2022/01/09 05:23:07;;;;;;;0.30;0.30;;;2.50;99.90;;;;;;4899300;29;20492;-80
2022/01/09 05:25:34;;;;;;;0.30;0.30;;;2.50;99.90;;;;;;4899351;29;20458;-80
2022/01/09 05:28:03;;;;;;;0.30;0.20;;;2.40;99.90;;;;;;4899023;29;20441;-80
2022/01/09 05:30:30;;;;;;;0.30;0.30;;;2.30;99.90;;;;;;4899207;29;20464;-80
2022/01/09 05:32:57;;;;;;;0.30;0.30;;;2.20;99.90;;;;;;4899174;29;20469;-80
2022/01/09 05:35:25;;;;;;;0.30;0.20;;;2.20;99.90;;;;;;4899144;29;20453;-80
2022/01/09 05:37:52;;;;;;;0.30;0.30;;;2.10;99.90;;;;;;4899104;29;20484;-80
2022/01/09 05:40:19;;;;;;;0.40;0.40;;;2.20;99.90;;;;;;4899026;29;20448;-80
2022/01/09 05:42:46;;;;;;;0.30;0.20;;;2.10;99.90;;;;;;4899117;29;20561;-80
2022/01/09 05:45:17;;;;;;;0.30;0.30;;;2.10;99.90;;;;;;4898968;29;20457;-80
2022/01/09 05:47:43;;;;;;;0.30;0.30;;;2.10;99.90;;;;;;4898947;29;20434;-80
2022/01/09 05:50:10;;;;;;;0.30;0.20;;;2.10;99.90;;;;;;4898860;29;20445;-80
2022/01/09 05:52:37;;;;;;;0.30;0.20;;;2.20;99.90;;;;;;4898664;29;20445;-80
2022/01/09 05:55:05;;;;;;;0.30;0.30;;;2.20;99.90;;;;;;4898818;29;20441;-81
2022/01/09 05:57:31;;;;;;;0.30;0.30;;;2.20;99.90;;;;;;4898527;29;20453;-80
2022/01/09 05:59:58;;;;;;;0.30;0.20;;;2.20;99.90;;;;;;4898867;29;20903;-80
2022/01/09 06:02:26;;;;;;;0.30;0.20;;;2.20;99.90;;;;;;4898327;29;20481;-80
2022/01/09 06:04:53;;;;;;;0.30;0.20;;;2.20;99.90;;;;;;4898671;29;20461;-80
2022/01/09 06:07:20;;;;;;;0.30;0.20;;;2.20;99.90;;;;;;4898583;29;20452;-80
2022/01/09 06:09:46;;;;;;;0.30;0.30;;;2.10;99.90;;;;;;4898990;29;20831;-80
2022/01/09 06:12:13;;;;;;;0.30;0.20;;;2.10;99.90;;;;;;4897793;29;20445;-81
2022/01/09 06:14:41;;;;;;;0.30;0.20;;;2.10;99.90;;;;;;4898445;29;20510;-81
2022/01/09 06:17:08;;;;;;;0.30;0.30;;;2.10;99.90;;;;;;4898493;29;20461;-80
2022/01/09 06:19:36;;;;;;;0.30;0.30;;;2.10;99.90;;;;;;4898325;29;20804;-80
2022/01/09 06:22:04;;;;;;;0.30;0.30;;;2.00;99.90;;;;;;4897914;29;20508;-80
2022/01/09 06:24:30;;;;;;;0.30;0.30;;;2.00;99.90;;;;;;4898395;29;20483;-80
2022/01/09 06:26:57;;;;;;;0.30;0.30;;;1.90;99.90;;;;;;4898235;29;20456;-80
2022/01/09 06:29:24;;;;;;;0.30;0.30;;;1.90;99.90;;;;;;4898319;29;20468;-80
2022/01/09 06:31:51;;;;;;;0.30;0.30;;;1.90;99.90;;;;;;4898331;29;20475;-80
2022/01/09 06:34:18;;;;;;;0.30;0.30;;;1.80;99.90;;;;;;4898229;29;20477;-80
2022/01/09 06:36:46;;;;;;;0.30;0.20;;;1.80;99.90;;;;;;4898040;29;20942;-81
2022/01/09 06:39:12;;;;;;;0.30;0.23;;;1.70;99.90;;;;;;4898241;29;20452;-82
2022/01/09 06:41:39;;;;;;;0.30;0.30;;;1.70;99.90;;;;;;4897859;29;21009;-81
2022/01/09 06:44:06;;;;;;;0.30;0.30;;;1.60;99.90;;;;;;4898131;29;20476;-81
2022/01/09 06:46:33;;;;;;;0.30;0.30;;;1.60;99.90;;;;;;4898249;29;20460;-81
2022/01/09 06:48:59;;;;;;;0.30;0.30;;;1.70;99.90;;;;;;4898309;29;20468;-86
2022/01/09 06:51:26;;;;;;;0.30;0.30;;;1.60;99.90;;;;;;4898194;29;20836;-86
2022/01/09 06:53:54;;;;;;;0.30;0.30;;;1.60;99.90;;;;;;4898177;29;20477;-86
2022/01/09 06:56:21;;;;;;;0.30;0.30;;;1.60;99.90;;;;;;4898033;29;20449;-85
2022/01/09 06:58:48;;;;;;;0.30;0.30;;;1.60;99.90;;;;;;4897944;29;20453;-86
2022/01/09 07:01:14;;;;;;;0.30;0.30;;;1.50;99.90;;;;;;4898265;29;20434;-86
2022/01/09 07:03:41;;;;;;;0.30;0.30;;;1.50;99.90;;;;;;4898027;29;20463;-86
2022/01/09 07:06:08;;;;;;;0.30;0.30;;;1.50;99.90;;;;;;4898259;29;20461;-86
2022/01/09 07:08:35;;;;;;;0.30;0.30;;;1.50;99.90;;;;;;4898068;29;20455;-86
2022/01/09 07:11:04;;;;;;;0.30;0.20;;;1.50;99.90;;;;;;4898038;29;20448;-86
2022/01/09 07:13:32;;;;;;;0.30;0.30;;;1.50;99.90;;;;;;4897917;29;20465;-86
2022/01/09 07:15:59;;;;;;;0.30;0.20;;;1.50;99.90;;;;;;4898199;29;20464;-86
2022/01/09 07:18:26;;;;;;;0.30;0.30;;;1.50;99.90;;;;;;4898044;29;20438;-86
2022/01/09 07:20:53;;;;;;;0.30;0.30;;;1.50;99.90;;;;;;4897670;29;21015;-86
2022/01/09 07:23:20;;;;;;;0.30;0.30;;;1.60;99.90;;;;;;4899984;29;20496;-86
2022/01/09 07:25:47;;;;;;;0.30;0.30;;;1.60;99.90;;;;;;4901778;29;20457;-86
2022/01/09 07:28:16;;;;;;;0.30;0.30;;;1.70;99.90;;;;;;4901148;29;20435;-86
2022/01/09 07:30:43;;;;;;;0.30;0.30;;;1.80;99.90;;;;;;4901438;29;20452;-86
2022/01/09 07:33:09;;;;;;;0.30;0.27;;;1.80;99.90;;;;;;4901619;29;20473;-85
2022/01/09 07:35:36;;;;;;;0.30;0.20;;;1.90;99.90;;;;;;4901133;29;20839;-86
2022/01/09 07:38:03;;;;;;;0.30;0.30;;;1.90;99.90;;;;;;4901534;29;20452;-86
2022/01/09 07:40:30;;;;;;;0.30;0.30;;;2.00;99.90;;;;;;4901301;29;20449;-86
2022/01/09 07:42:57;;;;;;;0.30;0.20;;;2.00;99.90;;;;;;4900917;29;20488;-86
2022/01/09 07:45:27;;;;;;;0.30;0.30;;;2.00;99.90;;;;;;4901270;29;20453;-86
2022/01/09 07:47:55;;;;;;;0.30;0.30;;;2.10;99.90;;;;;;4900972;29;20445;-86
2022/01/09 07:50:23;;;;;;;0.40;0.40;;;2.10;99.90;;;;;;4901215;29;20456;-86
2022/01/09 07:52:50;;;;;;;0.30;0.30;;;2.10;99.90;;;;;;4901161;29;20512;-86
2022/01/09 07:55:19;;;;;;;0.30;0.30;;;2.10;99.90;;;;;;4900870;29;20456;-85
2022/01/09 07:57:46;;;;;;;0.30;0.30;;;2.10;99.90;;;;;;4900950;29;20461;-82
2022/01/09 08:00:14;;;;;;;0.30;0.20;;;2.10;99.90;;;;;;4900882;29;20457;-82
2022/01/09 08:02:43;;;;;;;0.30;0.20;;;2.20;99.90;;;;;;4900751;29;20480;-82
2022/01/09 08:05:11;;;;;;;0.30;0.30;;;2.10;99.90;;;;;;4900786;29;20457;-82
2022/01/09 08:07:38;;;;;;;0.30;0.30;;;2.10;99.90;;;;;;4900423;29;20945;-81
2022/01/09 08:10:06;;;;;;;0.30;0.20;;;2.20;99.90;;;;;;4900706;29;20472;-82
2022/01/09 08:12:32;;;;;;;0.30;0.20;;;2.10;99.90;;;;;;4900569;29;20445;-81
2022/01/09 08:14:59;;;;;;;0.30;0.30;;;2.10;99.90;;;;;;4900627;29;20460;-81
2022/01/09 08:17:26;;;;;;;0.30;0.20;;;2.10;99.90;;;;;;4900696;29;20418;-85
2022/01/09 08:19:54;;;;;;;0.30;0.30;;;2.20;99.90;;;;;;4900595;29;20437;-85
2022/01/09 08:22:21;;;;;;;0.30;0.30;;;2.20;99.90;;;;;;4900032;29;20496;-83
2022/01/09 08:24:49;;;;;;;0.30;0.20;;;2.10;99.90;;;;;;4900292;29;20414;-82
2022/01/09 08:27:18;;;;;;;0.30;0.20;;;2.10;99.90;;;;;;4900131;29;20480;-83
2022/01/09 08:29:44;;;;;;;0.30;0.30;;;2.10;99.90;;;;;;4903248;29;20448;-83
2022/01/09 08:32:13;;;;;;;0.30;0.30;;;2.10;99.90;;;;;;4900579;29;20523;-83
2022/01/09 08:34:40;;;;;;;0.30;0.20;;;2.10;99.90;;;;;;4899836;29;20567;-83
2022/01/09 08:37:11;;;;;;;0.30;0.20;;;2.10;99.90;;;;;;4900069;29;20422;-83
2022/01/09 08:39:38;;;;;;;0.30;0.30;;;2.10;99.90;;;;;;4900595;29;20445;-83
2022/01/09 08:42:05;;;;;;;0.30;0.23;;;2.20;99.90;;;;;;4900118;29;20456;-83
2022/01/09 08:44:32;;;;;;;0.30;0.27;;;2.20;99.90;;;;;;4900027;29;20480;-83
2022/01/09 08:46:58;;;;;;;0.30;0.30;;;2.30;99.90;;;;;;4900380;29;20453;-83
2022/01/09 08:49:25;;;;;;;0.30;0.23;;;2.30;99.90;;;;;;4899850;29;20969;-83
2022/01/09 08:51:53;;;;;;;0.30;0.30;;;2.30;99.90;;;;;;4900171;29;20457;-84
2022/01/09 08:54:21;;;;;;;0.30;0.20;;;2.40;99.90;;;;;;4900119;29;20515;-83
2022/01/09 08:56:48;;;;;;;0.30;0.30;;;2.40;99.90;;;;;;4900157;29;20460;-84
2022/01/09 08:59:14;;;;;;;0.30;0.30;;;2.40;99.90;;;;;;4900111;29;20464;-84
2022/01/09 09:01:41;;;;;;;0.30;0.20;;;2.50;99.90;;;;;;4899750;29;20441;-84
2022/01/09 09:04:08;;;;;;;0.30;0.20;;;2.60;99.90;;;;;;4899866;29;20888;-84
2022/01/09 09:06:35;;;;;;;0.30;0.30;;;2.70;99.90;;;;;;4899738;29;20448;-84
2022/01/09 09:09:02;;;;;;;0.30;0.30;;;2.80;99.90;;;;;;4900566;29;20453;-83
2022/01/09 09:11:30;;;;;;;0.30;0.30;;;2.80;99.90;;;;;;4899943;29;20460;-84
2022/01/09 09:13:56;;;;;;;0.80;0.50;;;3.00;99.90;;;;;;4899460;29;20475;-83
2022/01/09 09:16:23;;;;;;;0.30;0.20;;;3.20;99.90;;;;;;4899800;29;20461;-85
2022/01/09 09:18:50;;;;;;;0.30;0.20;;;3.40;99.90;;;;;;4899993;29;20448;-86
2022/01/09 09:21:17;;;;;;;0.30;0.27;;;3.50;99.90;;;;;;4899511;29;20488;-84
2022/01/09 09:23:44;;;;;;;0.30;0.20;;;3.50;99.90;;;;;;4899227;29;20496;-84
2022/01/09 09:26:11;;;;;;;0.30;0.20;;;3.60;99.90;;;;;;4899563;29;20453;-84
2022/01/09 09:28:40;;;;;;;0.30;0.30;;;3.80;99.90;;;;;;4899779;29;20461;-86
2022/01/09 09:31:06;;;;;;;0.30;0.20;;;4.00;99.90;;;;;;4899712;29;20859;-87
2022/01/09 09:33:33;;;;;;;0.30;0.30;;;4.30;99.90;;;;;;4899346;29;20477;-87
2022/01/09 09:36:02;;;;;;;0.30;0.20;;;4.50;99.90;;;;;;4898982;29;20457;-85
2022/01/09 09:38:29;;;;;;;0.30;0.20;;;4.60;99.90;;;;;;4899575;29;20497;-86
2022/01/09 09:40:56;;;;;;;0.30;0.20;;;4.80;99.90;;;;;;4899463;29;20465;-86
2022/01/09 09:43:24;;;;;;;0.30;0.30;;;5.00;99.90;;;;;;4899223;29;20504;-86
2022/01/09 09:45:52;;;;;;;0.30;0.20;;;5.20;99.90;;;;;;4898032;29;20449;-86
2022/01/09 09:48:19;;;;;;;0.30;0.20;;;5.30;99.90;;;;;;4899045;29;20456;-85
2022/01/09 09:50:46;;;;;;;0.30;0.20;;;5.10;99.90;;;;;;4899028;29;20465;-85
2022/01/09 09:53:13;;;;;;;0.30;0.30;;;5.10;99.90;;;;;;4898872;29;20504;-86
2022/01/09 09:55:41;;;;;;;0.30;0.20;;;4.90;99.90;;;;;;4898933;29;20456;-85
2022/01/09 09:58:08;;;;;;;0.30;0.20;;;4.80;99.90;;;;;;4898913;29;20461;-86
2022/01/09 10:00:35;;;;;;;0.30;0.30;;;4.70;99.90;;;;;;4898815;29;20453;-86
2022/01/09 10:03:04;;;;;;;0.30;0.20;;;4.60;99.90;;;;;;4898666;29;20500;-83
2022/01/09 10:05:34;;;;;;;0.30;0.20;;;4.50;99.90;;;;;;4898729;29;20963;-86
2022/01/09 10:08:06;;;;;;;0.30;0.20;;;4.40;99.90;;;;;;4898729;29;20440;-85
2022/01/09 10:10:35;;;;;;;0.30;0.20;;;4.50;99.90;;;;;;4898695;29;20807;-86
2022/01/09 10:13:10;;;;;;;0.30;0.20;;;4.60;99.90;;;;;;4898314;29;21013;-86
2022/01/09 10:15:47;;;;;;;0.33;0.27;;;4.90;99.90;;;;;;4898577;29;20479;-86
2022/01/09 10:18:35;;;;;;;0.30;0.20;;;5.30;99.90;;;;;;4898299;29;20428;-86
2022/01/09 10:21:06;;;;;;;0.30;0.30;;;5.60;99.90;;;;;;4898385;29;20989;-85
2022/01/09 10:23:33;;;;;;;0.30;0.30;;;6.00;99.90;;;;;;4898398;29;20924;-86
2022/01/09 10:26:11;;;;;;;0.30;0.30;;;6.10;99.90;;;;;;4898427;29;20463;-86
2022/01/09 10:28:39;;;;;;;0.30;0.20;;;6.30;99.90;;;;;;4898475;29;20481;-86
2022/01/09 10:31:15;;;;;;;0.30;0.20;;;6.40;99.90;;;;;;4898192;29;20855;-85
2022/01/09 10:33:57;;;;;;;0.30;0.20;;;6.10;99.90;;;;;;4898793;29;20508;-86
2022/01/09 10:36:39;;;;;;;0.30;0.20;;;5.90;99.90;;;;;;4898373;29;20437;-86
2022/01/09 10:39:08;;;;;;;0.30;0.20;;;5.80;99.90;;;;;;4899006;29;20459;-86
2022/01/09 10:41:56;;;;;;;0.30;0.30;;;5.70;99.90;;;;;;4898043;29;20933;-85
2022/01/09 10:44:31;;;;;;;0.30;0.20;;;5.60;99.90;;;;;;4898005;29;21038;-86
2022/01/09 10:46:59;;;;;;;0.30;0.20;;;5.40;99.90;;;;;;4898792;29;20456;-90
2022/01/09 10:49:36;;;;;;;0.30;0.30;;;5.30;99.90;;;;;;4899266;29;20457;-85
2022/01/09 10:52:19;;;;;;;0.30;0.20;;;5.10;99.90;;;;;;4898180;29;20481;-85
2022/01/09 10:54:47;;;;;;;0.30;0.20;;;5.00;99.90;;;;;;4897848;29;21000;-85
2022/01/09 10:57:16;;;;;;;0.60;0.50;;;5.10;99.90;;;;;;4898690;29;20464;-84
2022/01/09 10:59:43;;;;;;;0.30;0.30;;;5.00;99.90;;;;;;4901989;29;20452;-85
2022/01/09 11:02:12;;;;;;;0.30;0.20;;;5.00;99.90;;;;;;4902033;29;20825;-85
2022/01/09 11:04:41;;;;;;;0.30;0.20;;;4.90;99.90;;;;;;4901843;29;20496;-85
2022/01/09 11:07:09;;;;;;;0.30;0.30;;;5.00;99.90;;;;;;4901967;29;20456;-86
2022/01/09 11:09:37;;;;;;;0.30;0.20;;;5.00;99.90;;;;;;4901910;29;20453;-85
2022/01/09 11:12:06;;;;;;;0.30;0.20;;;5.00;99.90;;;;;;4901802;29;20461;-85
2022/01/09 11:14:36;;;;;;;0.30;0.20;;;5.00;99.90;;;;;;4901994;29;20465;-85
2022/01/09 11:17:05;;;;;;;0.30;0.20;;;5.00;99.90;;;;;;4902524;29;20445;-85
2022/01/09 11:19:33;;;;;;;0.30;0.30;;;5.20;99.90;;;;;;4901390;29;21009;-85
2022/01/09 11:22:03;;;;;;;0.30;0.20;;;5.00;99.90;;;;;;4901156;29;20556;-85
2022/01/09 11:24:50;;;;;;;0.30;0.20;;;5.10;99.90;;;;;;4901727;29;20493;-83
2022/01/09 11:27:25;;;;;;;0.30;0.20;;;5.20;99.90;;;;;;4902139;29;20448;-83
2022/01/09 11:30:03;;;;;;;0.30;0.20;;;5.10;99.90;;;;;;4901645;29;20452;-83
2022/01/09 11:32:41;;;;;;;0.30;0.20;;;5.30;99.90;;;;;;4901442;29;20535;-83
2022/01/09 11:35:15;;;;;;;0.30;0.20;;;5.50;99.90;;;;;;4901507;29;20854;-83
2022/01/09 11:37:56;;;;;;;0.30;0.30;;;5.80;99.90;;;;;;4901325;29;20432;-83
2022/01/09 11:40:24;;;;;;;0.30;0.30;;;5.80;99.90;;;;;;4901411;29;20452;-83
2022/01/09 11:43:00;;;;;;;0.30;0.23;;;5.80;99.90;;;;;;4901300;29;20485;-84
2022/01/09 11:45:44;;;;;;;0.30;0.30;;;5.90;99.90;;;;;;4901045;29;20429;-85
2022/01/09 11:48:11;;;;;;;0.30;0.30;;;5.80;99.90;;;;;;4901308;29;20437;-85
2022/01/09 11:51:12;;;;;;;0.30;0.30;;;5.90;99.90;;;;;;4905439;29;20476;-85
2022/01/09 11:54:01;;;;;;;0.30;0.30;;;5.90;99.90;;;;;;4901215;29;21000;-85
2022/01/09 11:56:47;;;;;;;0.30;0.30;;;6.00;99.90;;;;;;4901261;29;20437;-85
2022/01/09 11:59:19;;;;;;;0.30;0.20;;;6.10;99.90;;;;;;4901009;29;20807;-85
2022/01/09 12:01:46;;;;;;;0.30;0.20;;;6.20;99.90;;;;;;4900978;29;20967;-85
2022/01/09 12:04:42;;;;;;;0.30;0.20;;;6.20;99.90;;;;;;4900570;29;20488;-85
2022/01/09 12:07:12;;;;;;;0.30;0.30;;;6.20;99.90;;;;;;4898886;29;20468;-84
2022/01/09 12:09:41;;;;;;;0.30;0.20;;;5.90;99.90;;;;;;4899570;29;20806;-85
2022/01/09 12:12:10;;;;;;;0.30;0.20;;;5.80;99.90;;;;;;4900841;29;20857;-85
2022/01/09 12:14:58;;;;;;;0.30;0.20;;;5.70;99.90;;;;;;4900693;29;20465;-85
2022/01/09 12:17:39;;;;;;;0.30;0.30;;;5.50;99.90;;;;;;4900732;29;20448;-83
2022/01/09 12:20:08;;;;;;;0.30;0.20;;;5.40;99.90;;;;;;4908169;29;20461;-83
2022/01/09 12:23:04;;;;;;;0.30;0.20;;;5.40;99.90;;;;;;4900470;29;20460;-83
2022/01/09 12:25:52;;;;;;;0.30;0.20;;;5.30;99.90;;;;;;4900444;29;20843;-82
2022/01/09 12:28:22;;;;;;;0.30;0.30;;;5.20;99.90;;;;;;4900532;29;20455;-83
2022/01/09 12:30:52;;;;;;;0.30;0.20;;;5.20;99.90;;;;;;4900503;29;20485;-83
2022/01/09 12:33:45;;;;;;;0.30;0.30;;;5.20;99.90;;;;;;4900437;29;20592;-83
2022/01/09 12:36:14;;;;;;;0.30;0.27;;;5.20;99.90;;;;;;4900052;29;20933;-83
2022/01/09 12:38:44;;;;;;;0.30;0.30;;;5.20;99.90;;;;;;4900212;29;20441;-83
2022/01/09 12:41:14;;;;;;;0.30;0.20;;;5.20;99.90;;;;;;4900283;29;20460;-83
2022/01/09 12:43:41;;;;;;;0.30;0.20;;;5.20;99.90;;;;;;4899801;29;20496;-85
2022/01/09 12:46:10;;;;;;;0.30;0.20;;;5.10;99.90;;;;;;4899888;29;21022;-85
2022/01/09 12:48:36;;;;;;;0.30;0.20;;;5.10;99.90;;;;;;4899833;29;20879;-85
2022/01/09 12:51:12;;;;;;;0.30;0.30;;;5.10;99.90;;;;;;4899973;29;20453;-85
2022/01/09 12:53:40;;;;;;;0.30;0.20;;;5.10;99.90;;;;;;4900234;29;20488;-85
2022/01/09 12:56:09;;;;;;;0.30;0.30;;;5.10;99.90;;;;;;4899928;29;20456;-85
2022/01/09 12:58:38;;;;;;;0.30;0.20;;;5.10;99.90;;;;;;4899870;29;20463;-85
2022/01/09 13:01:07;;;;;;;0.30;0.20;;;5.10;99.90;;;;;;4899531;29;20933;-85
2022/01/09 13:03:35;;;;;;;0.30;0.30;;;4.90;99.90;;;;;;4899671;29;20843;-85
2022/01/09 13:06:06;;;;;;;0.40;0.33;;;4.90;99.90;;;;;;4899665;29;20437;-85